createdAt,value
2022-08-11T00:01:25.249Z,18.00
2022-08-11T00:05:27.017Z,17.80
2022-08-11T00:09:39.317Z,17.50
2022-08-11T00:13:48.347Z,17.40
2022-08-11T00:17:56.935Z,17.20
2022-08-11T00:22:05.401Z,17.00
2022-08-11T00:26:08.890Z,16.90
2022-08-11T00:30:13.254Z,16.70
2022-08-11T00:34:17.464Z,16.70
2022-08-11T00:38:25.745Z,16.50
2022-08-11T00:42:54.782Z,16.40
2022-08-11T00:47:04.925Z,16.30
2022-08-11T00:51:13.903Z,16.20
2022-08-11T00:55:47.136Z,16.10
2022-08-11T01:00:16.638Z,16.00
2022-08-11T01:04:56.932Z,16.00
2022-08-11T01:09:21.002Z,15.90
2022-08-11T01:13:50.948Z,15.80
2022-08-11T01:18:11.173Z,15.70
2022-08-11T01:22:15.643Z,15.70
2022-08-11T01:26:49.250Z,15.60
2022-08-11T01:31:20.220Z,15.40
2022-08-11T01:35:49.096Z,15.40
2022-08-11T01:40:09.380Z,15.40
2022-08-11T01:44:29.534Z,15.30
2022-08-11T01:48:37.887Z,15.30
2022-08-11T01:52:58.042Z,15.20
2022-08-11T01:57:31.727Z,15.20
2022-08-11T02:01:36.557Z,15.10
2022-08-11T02:06:25.811Z,15.10
2022-08-11T02:11:21.095Z,15.00
2022-08-11T02:15:45.045Z,15.10
2022-08-11T02:20:12.973Z,15.10
2022-08-11T02:24:24.971Z,15.00
2022-08-11T02:28:46.697Z,15.00
2022-08-11T02:33:14.852Z,15.00
2022-08-11T02:37:24.297Z,15.00
2022-08-11T02:42:00.142Z,14.90
2022-08-11T02:46:18.114Z,15.00
2022-08-11T02:50:26.521Z,14.80
2022-08-11T02:54:30.985Z,14.70
2022-08-11T02:59:12.487Z,14.70
2022-08-11T03:04:08.564Z,14.70
2022-08-11T03:08:51.115Z,14.60
2022-08-11T03:13:22.858Z,14.60
2022-08-11T03:18:09.663Z,14.50
2022-08-11T03:22:24.944Z,14.50
2022-08-11T03:27:05.285Z,14.50
2022-08-11T03:31:27.342Z,14.50
2022-08-11T03:35:35.912Z,14.50
2022-08-11T03:39:40.542Z,14.50
2022-08-11T03:44:10.372Z,14.50
2022-08-11T03:48:25.489Z,14.40
2022-08-11T03:52:33.031Z,14.30
2022-08-11T03:56:37.660Z,14.30
2022-08-11T04:01:03.947Z,14.20
2022-08-11T04:05:32.295Z,14.10
2022-08-11T04:09:40.325Z,14.10
2022-08-11T04:14:39.372Z,14.00
2022-08-11T04:18:59.736Z,13.90
2022-08-11T04:24:34.443Z,13.90
2022-08-11T04:28:31.751Z,13.80
2022-08-11T04:32:59.180Z,13.70
2022-08-11T04:37:30.665Z,13.60
2022-08-11T04:42:12.594Z,13.60
2022-08-11T04:46:30.509Z,13.60
2022-08-11T04:51:16.961Z,13.60
2022-08-11T04:56:25.053Z,13.70
2022-08-11T05:00:56.810Z,13.70
2022-08-11T05:05:31.815Z,14.10
2022-08-11T05:09:58.145Z,14.50
2022-08-11T05:14:41.616Z,14.60
2022-08-11T05:19:09.709Z,14.60
2022-08-11T05:23:30.295Z,14.60
2022-08-11T05:28:18.834Z,14.60
2022-08-11T05:32:40.540Z,14.50
2022-08-11T05:37:17.158Z,14.60
2022-08-11T05:41:47.056Z,14.60
2022-08-11T05:46:18.672Z,14.70
2022-08-11T05:50:42.313Z,14.80
2022-08-11T05:55:07.071Z,14.90
2022-08-11T05:59:17.910Z,15.00
2022-08-11T06:03:28.474Z,15.10
2022-08-11T06:07:48.486Z,15.20
2022-08-11T06:11:52.850Z,15.40
2022-08-11T06:15:55.943Z,15.50
2022-08-11T06:20:11.753Z,15.60
2022-08-11T06:24:16.976Z,15.80
2022-08-11T06:28:21.370Z,15.90
2022-08-11T06:32:35.938Z,16.10
2022-08-11T06:36:55.484Z,16.30
2022-08-11T06:41:21.841Z,16.60
2022-08-11T06:45:26.228Z,16.80
2022-08-11T06:50:01.168Z,16.90
2022-08-11T06:54:05.650Z,17.20
2022-08-11T06:58:34.881Z,17.50
2022-08-11T07:02:42.453Z,17.80
2022-08-11T07:07:27.585Z,18.20
2022-08-11T07:12:07.091Z,18.70
2022-08-11T07:16:12.526Z,19.20
2022-08-11T07:20:36.058Z,19.60
2022-08-11T07:25:19.615Z,19.80
2022-08-11T07:29:22.270Z,20.00
2022-08-11T07:34:05.651Z,20.30
2022-08-11T07:38:22.222Z,20.50
2022-08-11T07:42:31.098Z,20.70
2022-08-11T07:46:51.683Z,21.30
2022-08-11T07:51:12.933Z,21.50
2022-08-11T07:55:17.145Z,21.80
2022-08-11T08:00:02.625Z,21.80
2022-08-11T08:04:19.166Z,22.00
2022-08-11T08:08:40.332Z,22.10
2022-08-11T08:13:00.687Z,22.30
2022-08-11T08:17:21.157Z,22.80
2022-08-11T08:21:22.951Z,22.80
2022-08-11T08:25:26.972Z,23.30
2022-08-11T08:29:52.095Z,23.30
2022-08-11T08:33:53.949Z,23.60
2022-08-11T08:37:56.286Z,23.80
2022-08-11T08:41:59.246Z,24.10
2022-08-11T08:46:01.936Z,24.60
2022-08-11T08:50:08.130Z,25.60
2022-08-11T08:54:20.237Z,26.50
2022-08-11T08:58:23.692Z,27.60
2022-08-11T09:02:33.960Z,28.30
2022-08-11T09:06:42.819Z,29.10
2022-08-11T09:11:13.276Z,29.70
2022-08-11T09:15:19.826Z,30.40
2022-08-11T09:19:23.733Z,30.90
2022-08-11T09:28:11.404Z,30.90
2022-08-11T09:32:14.829Z,31.70
2022-08-11T09:36:38.746Z,32.40
2022-08-11T09:40:44.902Z,32.40
2022-08-11T09:44:50.786Z,32.60
2022-08-11T09:48:56.802Z,32.70
2022-08-11T09:53:36.306Z,32.50
2022-08-11T09:57:41.232Z,32.70
2022-08-11T10:01:50.271Z,33.00
2022-08-11T10:06:14.976Z,33.50
2022-08-11T10:10:22.716Z,33.60
2022-08-11T10:14:45.175Z,33.80
2022-08-11T10:18:53.664Z,33.70
2022-08-11T10:23:14.491Z,33.70
2022-08-11T10:27:17.302Z,33.90
2022-08-11T10:31:47.946Z,33.70
2022-08-11T10:36:00.127Z,33.60
2022-08-11T10:40:03.348Z,33.90
2022-08-11T10:44:07.567Z,33.60
2022-08-11T10:48:15.231Z,33.30
2022-08-11T10:52:35.900Z,33.50
2022-08-11T10:56:57.816Z,32.70
2022-08-11T11:01:00.607Z,32.90
2022-08-11T11:05:10.346Z,32.70
2022-08-11T11:09:22.237Z,32.50
2022-08-11T11:13:55.165Z,31.70
2022-08-11T11:18:07.393Z,32.00
2022-08-11T11:22:31.375Z,32.20
2022-08-11T11:26:45.672Z,32.00
2022-08-11T11:31:21.083Z,31.80
2022-08-11T11:35:26.668Z,31.90
2022-08-11T11:39:32.167Z,31.70
2022-08-11T11:43:35.516Z,31.80
2022-08-11T11:47:38.615Z,31.90
2022-08-11T11:51:40.954Z,32.00
2022-08-11T11:55:45.171Z,32.20
2022-08-11T12:00:15.163Z,32.20
2022-08-11T12:04:19.188Z,31.90
2022-08-11T12:08:25.920Z,31.90
2022-08-11T12:12:50.050Z,32.10
2022-08-11T12:16:51.938Z,32.40
2022-08-11T12:20:53.892Z,32.50
2022-08-11T12:25:14.491Z,32.40
2022-08-11T12:29:27.048Z,32.30
2022-08-11T12:33:28.836Z,32.30
2022-08-11T12:37:35.080Z,32.30
2022-08-11T12:41:57.493Z,32.20
2022-08-11T12:46:04.555Z,32.10
2022-08-11T12:50:25.899Z,32.00
2022-08-11T12:54:49.738Z,32.10
2022-08-11T12:58:53.476Z,31.90
2022-08-11T13:03:15.280Z,32.10
2022-08-11T13:07:17.638Z,32.00
2022-08-11T13:11:56.720Z,32.20
2022-08-11T13:16:00.235Z,32.10
2022-08-11T13:20:02.883Z,32.00
2022-08-11T13:24:06.257Z,31.90
2022-08-11T13:28:08.255Z,32.20
2022-08-11T13:32:11.293Z,32.40
2022-08-11T13:36:15.783Z,32.30
2022-08-11T13:40:33.352Z,32.30
2022-08-11T13:44:44.082Z,32.40
2022-08-11T13:48:46.600Z,32.70
2022-08-11T13:52:53.175Z,32.00
2022-08-11T13:56:59.722Z,32.20
2022-08-11T14:01:01.679Z,32.10
2022-08-11T14:05:33.730Z,31.80
2022-08-11T14:09:39.305Z,31.80
2022-08-11T14:13:48.314Z,32.00
2022-08-11T14:18:01.519Z,32.10
2022-08-11T14:22:08.327Z,32.10
2022-08-11T14:26:23.552Z,31.80
2022-08-11T14:30:46.180Z,31.60
2022-08-11T14:34:49.323Z,31.70
2022-08-11T14:38:51.331Z,31.60
2022-08-11T14:43:12.759Z,31.50
2022-08-11T14:47:24.680Z,31.30
2022-08-11T14:51:28.034Z,31.20
2022-08-11T14:55:51.222Z,31.30
2022-08-11T14:59:54.054Z,31.30
2022-08-11T15:04:25.106Z,31.30
2022-08-11T15:08:20.547Z,30.90
2022-08-11T15:12:32.802Z,30.80
2022-08-11T15:16:56.283Z,31.00
2022-08-11T15:21:16.764Z,30.80
2022-08-11T15:25:19.990Z,30.80
2022-08-11T15:29:44.255Z,30.60
2022-08-11T15:34:05.593Z,30.50
2022-08-11T15:38:13.892Z,30.40
2022-08-11T15:42:36.126Z,30.40
2022-08-11T15:46:47.412Z,30.20
2022-08-11T15:50:56.122Z,30.10
2022-08-11T15:55:02.083Z,30.10
2022-08-11T15:59:41.500Z,29.90
2022-08-11T16:04:12.993Z,29.80
2022-08-11T16:08:25.265Z,29.70
2022-08-11T16:13:07.684Z,29.60
2022-08-11T16:17:12.605Z,29.60
2022-08-11T16:21:34.220Z,29.50
2022-08-11T16:27:04.602Z,29.40
2022-08-11T16:30:01.247Z,29.40
2022-08-11T16:34:04.250Z,29.20
2022-08-11T16:38:26.570Z,29.10
2022-08-11T16:43:06.117Z,29.20
2022-08-11T16:47:16.192Z,29.30
2022-08-11T16:51:20.742Z,29.10
2022-08-11T16:55:51.494Z,29.10
2022-08-11T16:59:45.254Z,28.90
2022-08-11T17:04:12.322Z,28.90
2022-08-11T17:08:34.409Z,29.00
2022-08-11T17:12:57.023Z,28.80
2022-08-11T17:17:01.490Z,28.70
2022-08-11T17:21:04.945Z,28.70
2022-08-11T17:25:09.836Z,28.60
2022-08-11T17:29:12.252Z,28.60
2022-08-11T17:33:34.084Z,28.50
2022-08-11T17:37:37.273Z,28.50
2022-08-11T17:42:00.262Z,28.30
2022-08-11T17:46:04.967Z,28.30
2022-08-11T17:50:17.231Z,28.20
2022-08-11T17:54:41.808Z,28.20
2022-08-11T17:59:03.316Z,28.00
2022-08-11T18:03:24.505Z,27.90
2022-08-11T18:07:44.828Z,27.80
2022-08-11T18:12:11.627Z,27.70
2022-08-11T18:16:33.461Z,27.50
2022-08-11T18:20:55.036Z,27.40
2022-08-11T18:25:25.771Z,27.30
2022-08-11T18:29:48.294Z,27.10
2022-08-11T18:34:13.499Z,27.10
2022-08-11T18:38:35.865Z,27.00
2022-08-11T18:43:06.651Z,26.80
2022-08-11T18:47:31.825Z,26.70
2022-08-11T18:51:55.540Z,26.50
2022-08-11T18:56:18.162Z,26.30
2022-08-11T19:00:38.731Z,26.00
2022-08-11T19:05:00.141Z,26.00
2022-08-11T19:09:23.616Z,25.70
2022-08-11T19:13:46.637Z,25.60
2022-08-11T19:18:08.965Z,25.30
2022-08-11T19:22:29.596Z,25.10
2022-08-11T19:26:53.090Z,24.90
2022-08-11T19:31:15.409Z,24.70
2022-08-11T19:35:38.044Z,24.50
2022-08-11T19:40:00.453Z,24.30
2022-08-11T19:44:22.404Z,24.10
2022-08-11T19:48:44.362Z,23.90
2022-08-11T19:53:16.956Z,23.60
2022-08-11T19:57:41.133Z,23.50
2022-08-11T20:02:13.495Z,23.10
2022-08-11T20:06:37.191Z,22.90
2022-08-11T20:10:58.591Z,22.70
2022-08-11T20:15:19.561Z,22.50
2022-08-11T20:19:55.138Z,22.40
2022-08-11T20:24:19.642Z,22.30
2022-08-11T20:28:40.209Z,22.20
2022-08-11T20:33:02.065Z,22.10
2022-08-11T20:37:24.500Z,21.90
2022-08-11T20:41:58.188Z,21.60
2022-08-11T20:46:21.911Z,21.50
2022-08-11T20:50:45.655Z,21.40
2022-08-11T20:55:10.880Z,21.50
2022-08-11T20:59:56.399Z,21.50
2022-08-11T21:04:17.324Z,21.40
2022-08-11T21:09:00.207Z,21.40
2022-08-11T21:13:27.047Z,21.20
2022-08-11T21:18:00.613Z,21.20
2022-08-11T21:22:32.347Z,21.10
2022-08-11T21:26:59.234Z,21.00
2022-08-11T21:31:25.764Z,20.90
2022-08-11T21:35:47.215Z,20.80
2022-08-11T21:40:23.927Z,20.80
2022-08-11T21:44:46.519Z,20.70
2022-08-11T21:49:08.715Z,20.70
2022-08-11T21:53:35.190Z,20.70
2022-08-11T21:57:56.845Z,20.80
2022-08-11T22:02:17.915Z,20.80
2022-08-11T22:06:39.934Z,20.90
2022-08-11T22:11:00.427Z,21.10
2022-08-11T22:15:20.963Z,21.30
2022-08-11T22:19:42.856Z,21.30
2022-08-11T22:24:05.493Z,21.30
2022-08-11T22:28:28.525Z,21.30
2022-08-11T22:32:49.631Z,21.20
2022-08-11T22:37:10.740Z,21.00
2022-08-11T22:41:47.819Z,20.90
2022-08-11T22:46:08.254Z,20.80
2022-08-11T22:50:28.783Z,20.70
2022-08-11T22:54:50.550Z,20.70
2022-08-11T22:59:11.415Z,20.60
2022-08-11T23:03:38.254Z,20.30
2022-08-11T23:07:59.852Z,20.00
2022-08-11T23:12:20.692Z,19.90
2022-08-11T23:16:43.406Z,19.70
2022-08-11T23:21:05.369Z,19.50
2022-08-11T23:25:26.273Z,19.40
2022-08-11T23:29:48.793Z,19.30
2022-08-11T23:34:37.011Z,19.20
2022-08-11T23:38:56.171Z,19.00
2022-08-11T23:43:16.814Z,18.80
2022-08-11T23:47:38.793Z,18.80
2022-08-11T23:52:11.340Z,18.70
2022-08-11T23:56:33.558Z,18.50
